createdAt,value
2022-12-22T00:00:34.918Z,1.30
2022-12-22T00:01:35.055Z,2.10
2022-12-22T00:02:35.104Z,1.30
2022-12-22T00:03:34.961Z,2.20
2022-12-22T00:04:56.232Z,2.50
2022-12-22T00:05:35.859Z,2.70
2022-12-22T00:06:34.839Z,2.60
2022-12-22T00:07:34.910Z,2.00
2022-12-22T00:08:34.819Z,1.90
2022-12-22T00:09:34.821Z,3.00
2022-12-22T00:10:34.802Z,2.10
2022-12-22T00:11:34.748Z,2.20
2022-12-22T00:12:34.739Z,1.50
2022-12-22T00:13:34.919Z,2.00
2022-12-22T00:14:34.726Z,1.60
2022-12-22T00:15:34.725Z,2.50
2022-12-22T00:16:34.827Z,1.70
2022-12-22T00:17:34.767Z,2.80
2022-12-22T00:18:34.682Z,1.40
2022-12-22T00:19:34.664Z,2.10
2022-12-22T00:20:34.774Z,1.90
2022-12-22T00:21:34.628Z,2.30
2022-12-22T00:22:34.647Z,1.80
2022-12-22T00:23:34.737Z,2.20
2022-12-22T00:24:34.587Z,1.10
2022-12-22T00:25:34.590Z,2.20
2022-12-22T00:26:34.725Z,2.00
2022-12-22T00:27:34.571Z,2.60
2022-12-22T00:28:34.616Z,2.90
2022-12-22T00:29:41.728Z,1.50
2022-12-22T00:30:35.558Z,2.60
2022-12-22T00:31:34.482Z,2.30
2022-12-22T00:32:34.481Z,1.40
2022-12-22T00:33:34.530Z,2.80
2022-12-22T00:34:34.497Z,3.50
2022-12-22T00:35:34.460Z,1.90
2022-12-22T00:36:34.540Z,1.50
2022-12-22T00:37:34.406Z,3.30
2022-12-22T00:38:34.436Z,2.20
2022-12-22T00:39:34.379Z,1.10
2022-12-22T00:40:34.451Z,2.90
2022-12-22T00:41:34.385Z,2.60
2022-12-22T00:42:34.339Z,1.60
2022-12-22T00:43:34.451Z,2.30
2022-12-22T00:44:34.308Z,2.80
2022-12-22T00:45:34.299Z,2.00
2022-12-22T00:46:34.618Z,1.40
2022-12-22T00:47:34.274Z,3.40
2022-12-22T00:48:34.303Z,1.80
2022-12-22T00:49:34.322Z,2.50
2022-12-22T00:50:34.261Z,2.60
2022-12-22T00:51:34.223Z,3.10
2022-12-22T00:52:37.462Z,1.20
2022-12-22T00:53:34.205Z,2.40
2022-12-22T00:54:34.197Z,2.80
2022-12-22T00:55:34.192Z,2.90
2022-12-22T00:56:34.192Z,2.00
2022-12-22T00:57:34.162Z,2.70
2022-12-22T00:58:34.191Z,2.10
2022-12-22T00:59:34.120Z,1.90
2022-12-22T01:00:34.284Z,2.10
2022-12-22T01:01:34.224Z,1.30
2022-12-22T01:02:34.228Z,1.70
2022-12-22T01:03:34.471Z,2.00
2022-12-22T01:04:34.057Z,2.20
2022-12-22T01:05:34.029Z,2.80
2022-12-22T01:06:34.124Z,2.00
2022-12-22T01:07:34.039Z,1.70
2022-12-22T01:08:33.988Z,1.10
2022-12-22T01:09:34.079Z,2.60
2022-12-22T01:10:33.961Z,2.80
2022-12-22T01:11:33.957Z,1.60
2022-12-22T01:12:34.011Z,1.80
2022-12-22T01:13:34.002Z,2.40
2022-12-22T01:14:33.958Z,1.60
2022-12-22T01:16:05.874Z,3.90
2022-12-22T01:16:34.950Z,1.90
2022-12-22T01:17:33.883Z,1.30
2022-12-22T01:18:33.932Z,1.60
2022-12-22T01:19:33.858Z,2.20
2022-12-22T01:20:33.829Z,2.30
2022-12-22T01:21:33.833Z,2.30
2022-12-22T01:22:33.905Z,2.20
2022-12-22T01:23:33.813Z,1.50
2022-12-22T01:24:33.797Z,1.60
2022-12-22T01:25:33.858Z,1.60
2022-12-22T01:26:33.757Z,1.60
2022-12-22T01:27:33.732Z,1.90
2022-12-22T01:28:33.756Z,2.00
2022-12-22T01:29:33.756Z,2.30
2022-12-22T01:30:33.731Z,1.70
2022-12-22T01:31:33.720Z,1.30
2022-12-22T01:32:33.690Z,1.80
2022-12-22T01:33:33.647Z,2.50
2022-12-22T01:34:33.718Z,1.80
2022-12-22T01:35:33.621Z,3.30
2022-12-22T01:36:33.626Z,1.90
2022-12-22T01:37:33.629Z,1.40
2022-12-22T01:38:33.643Z,1.30
2022-12-22T01:39:33.590Z,3.20
2022-12-22T01:40:33.608Z,1.70
2022-12-22T01:41:33.780Z,2.20
2022-12-22T01:42:33.548Z,2.50
2022-12-22T01:43:33.537Z,2.50
2022-12-22T01:44:33.697Z,3.60
2022-12-22T01:45:33.497Z,2.50
2022-12-22T01:46:33.582Z,0.90
2022-12-22T01:47:33.629Z,2.30
2022-12-22T01:48:33.468Z,2.20
2022-12-22T01:49:33.458Z,1.10
2022-12-22T01:50:33.678Z,1.70
2022-12-22T01:51:33.467Z,1.90
2022-12-22T01:52:33.407Z,1.40
2022-12-22T01:53:33.483Z,1.30
2022-12-22T01:54:33.401Z,1.30
2022-12-22T01:55:33.428Z,1.70
2022-12-22T01:56:33.466Z,1.20
2022-12-22T01:57:33.381Z,1.20
2022-12-22T01:58:33.383Z,1.30
2022-12-22T01:59:33.407Z,3.30
2022-12-22T02:00:33.299Z,1.60
2022-12-22T02:01:33.470Z,2.70
2022-12-22T02:02:33.528Z,1.60
2022-12-22T02:03:33.348Z,1.80
2022-12-22T02:04:39.245Z,2.10
2022-12-22T02:05:34.236Z,1.80
2022-12-22T02:06:33.212Z,3.00
2022-12-22T02:07:33.331Z,1.60
2022-12-22T02:08:33.194Z,0.80
2022-12-22T02:09:33.293Z,1.90
2022-12-22T02:10:33.338Z,2.20
2022-12-22T02:11:33.193Z,1.90
2022-12-22T02:12:33.181Z,1.40
2022-12-22T02:13:34.457Z,1.70
2022-12-22T02:14:33.121Z,1.30
2022-12-22T02:15:33.198Z,1.50
2022-12-22T02:16:33.368Z,2.00
2022-12-22T02:17:33.156Z,1.00
2022-12-22T02:18:33.055Z,2.40
2022-12-22T02:19:33.096Z,0.70
2022-12-22T02:20:33.134Z,1.40
2022-12-22T02:21:33.050Z,0.90
2022-12-22T02:22:33.038Z,1.70
2022-12-22T02:23:33.018Z,0.70
2022-12-22T02:24:48.440Z,1.40
2022-12-22T02:25:32.943Z,2.00
2022-12-22T02:26:33.003Z,2.70
2022-12-22T02:27:33.094Z,2.10
2022-12-22T02:28:32.919Z,1.40
2022-12-22T02:29:32.905Z,2.00
2022-12-22T02:30:33.102Z,2.40
2022-12-22T02:31:32.948Z,1.60
2022-12-22T02:32:32.935Z,1.20
2022-12-22T02:33:33.084Z,1.60
2022-12-22T02:34:32.842Z,1.20
2022-12-22T02:35:32.839Z,1.20
2022-12-22T02:36:32.979Z,0.70
2022-12-22T02:37:32.826Z,0.80
2022-12-22T02:38:32.852Z,0.50
2022-12-22T02:39:32.769Z,1.20
2022-12-22T02:40:40.656Z,0.80
2022-12-22T02:41:33.745Z,1.40
2022-12-22T02:42:32.722Z,1.40
2022-12-22T02:43:32.783Z,1.50
2022-12-22T02:44:32.765Z,1.70
2022-12-22T02:45:32.685Z,0.60
2022-12-22T02:46:32.981Z,1.10
2022-12-22T02:47:32.678Z,0.90
2022-12-22T02:48:32.636Z,1.10
2022-12-22T02:49:32.683Z,1.30
2022-12-22T02:50:32.643Z,2.70
2022-12-22T02:51:32.661Z,0.70
2022-12-22T02:52:32.616Z,1.30
2022-12-22T02:53:32.674Z,1.40
2022-12-22T02:54:32.576Z,1.80
2022-12-22T02:55:32.547Z,1.40
2022-12-22T02:56:32.585Z,1.30
2022-12-22T02:57:32.558Z,1.00
2022-12-22T02:58:32.507Z,1.20
2022-12-22T02:59:32.734Z,1.10
2022-12-22T03:00:32.481Z,2.00
2022-12-22T03:01:32.580Z,1.40
2022-12-22T03:02:32.720Z,1.50
2022-12-22T03:03:32.713Z,1.20
2022-12-22T03:04:32.446Z,1.00
2022-12-22T03:05:32.421Z,1.20
2022-12-22T03:06:32.480Z,1.20
2022-12-22T03:07:32.414Z,1.90
2022-12-22T03:08:32.435Z,1.30
2022-12-22T03:09:32.610Z,1.20
2022-12-22T03:10:32.355Z,1.10
2022-12-22T03:11:32.390Z,0.60
2022-12-22T03:13:41.706Z,1.20
2022-12-22T03:14:41.813Z,1.00
2022-12-22T03:15:41.733Z,1.40
2022-12-22T03:16:41.924Z,0.90
2022-12-22T03:17:41.647Z,0.80
2022-12-22T03:19:17.787Z,0.50
2022-12-22T03:19:41.664Z,0.60
2022-12-22T03:20:41.650Z,0.70
2022-12-22T03:21:41.626Z,1.00
2022-12-22T03:22:41.588Z,1.50
2022-12-22T03:23:41.652Z,0.60
2022-12-22T03:24:41.621Z,1.80
2022-12-22T03:25:41.572Z,0.80
2022-12-22T03:26:41.590Z,1.50
2022-12-22T03:27:41.515Z,2.10
2022-12-22T03:28:41.500Z,2.20
2022-12-22T03:29:41.488Z,0.70
2022-12-22T03:30:41.521Z,1.20
2022-12-22T03:31:41.624Z,1.70
2022-12-22T03:32:41.495Z,1.80
2022-12-22T03:33:41.449Z,0.90
2022-12-22T03:34:41.444Z,0.80
2022-12-22T03:35:41.512Z,1.80
2022-12-22T03:36:41.444Z,2.10
2022-12-22T03:37:41.374Z,1.20
2022-12-22T03:38:41.384Z,0.70
2022-12-22T03:39:41.450Z,0.70
2022-12-22T03:40:42.796Z,1.30
2022-12-22T03:41:41.336Z,1.80
2022-12-22T03:42:41.629Z,2.10
2022-12-22T03:43:41.367Z,2.00
2022-12-22T03:44:41.284Z,1.50
2022-12-22T03:45:41.323Z,1.00
2022-12-22T03:46:41.385Z,1.50
2022-12-22T03:47:41.278Z,1.30
2022-12-22T03:48:41.256Z,0.80
2022-12-22T03:49:41.292Z,1.60
2022-12-22T03:50:41.227Z,1.50
2022-12-22T03:51:41.218Z,0.30
2022-12-22T03:52:41.380Z,1.30
2022-12-22T03:53:41.196Z,1.10
2022-12-22T03:54:41.203Z,1.60
2022-12-22T03:55:41.194Z,1.30
2022-12-22T03:56:41.165Z,1.80
2022-12-22T03:57:41.194Z,1.50
2022-12-22T03:58:41.130Z,1.70
2022-12-22T03:59:41.159Z,0.60
2022-12-22T04:00:45.640Z,1.90
2022-12-22T04:01:41.290Z,1.50
2022-12-22T04:02:41.171Z,2.40
2022-12-22T04:03:56.587Z,2.10
2022-12-22T04:04:41.078Z,1.20
2022-12-22T04:05:41.008Z,0.90
2022-12-22T04:06:41.016Z,1.60
2022-12-22T04:07:41.064Z,1.80
2022-12-22T04:08:40.976Z,0.40
2022-12-22T04:09:40.954Z,0.60
2022-12-22T04:10:40.974Z,1.00
2022-12-22T04:11:40.903Z,1.10
2022-12-22T04:12:40.919Z,2.10
2022-12-22T04:13:41.102Z,1.50
2022-12-22T04:14:40.884Z,1.20
2022-12-22T04:15:40.932Z,1.50
2022-12-22T04:16:40.952Z,1.40
2022-12-22T04:17:40.855Z,1.30
2022-12-22T04:18:40.834Z,3.20
2022-12-22T04:19:40.944Z,1.30
2022-12-22T04:20:40.903Z,0.80
2022-12-22T04:21:40.843Z,1.70
2022-12-22T04:22:40.775Z,1.40
2022-12-22T04:23:40.783Z,1.70
2022-12-22T04:24:40.765Z,0.70
2022-12-22T04:25:40.752Z,2.10
2022-12-22T04:26:40.802Z,0.90
2022-12-22T04:27:40.773Z,0.90
2022-12-22T04:28:40.765Z,1.50
2022-12-22T04:29:40.710Z,1.10
2022-12-22T04:30:40.722Z,1.20
2022-12-22T04:31:40.928Z,1.20
2022-12-22T04:32:40.690Z,2.20
2022-12-22T04:33:40.674Z,1.30
2022-12-22T04:34:40.623Z,1.20
2022-12-22T04:35:40.597Z,1.40
2022-12-22T04:36:40.773Z,3.50
2022-12-22T04:37:40.574Z,2.20
2022-12-22T04:38:40.564Z,2.70
2022-12-22T04:39:40.624Z,2.80
2022-12-22T04:40:40.609Z,2.10
2022-12-22T04:41:40.583Z,1.30
2022-12-22T04:42:58.742Z,1.50
2022-12-22T04:43:41.497Z,2.70
2022-12-22T04:44:40.503Z,2.30
2022-12-22T04:45:40.763Z,1.40
2022-12-22T04:46:40.528Z,2.00
2022-12-22T04:47:40.482Z,2.00
2022-12-22T04:49:50.431Z,3.70
2022-12-22T04:50:50.333Z,2.90
2022-12-22T04:51:50.331Z,1.20
2022-12-22T04:52:50.350Z,2.10
2022-12-22T04:53:50.296Z,3.50
2022-12-22T04:54:50.297Z,2.80
2022-12-22T04:55:50.291Z,1.40
2022-12-22T04:56:50.222Z,1.90
2022-12-22T04:57:50.230Z,1.30
2022-12-22T04:58:50.190Z,2.70
2022-12-22T04:59:50.167Z,1.50
2022-12-22T05:00:50.218Z,1.20
2022-12-22T05:01:50.356Z,1.70
2022-12-22T05:02:50.523Z,2.40
2022-12-22T05:03:50.205Z,2.50
2022-12-22T05:04:50.144Z,1.50
2022-12-22T05:05:50.159Z,1.80
2022-12-22T05:06:50.116Z,1.20
2022-12-22T05:07:50.086Z,2.00
2022-12-22T05:08:50.034Z,1.70
2022-12-22T05:09:54.789Z,3.00
2022-12-22T05:10:50.009Z,1.40
2022-12-22T05:11:50.015Z,1.80
2022-12-22T05:12:50.150Z,1.90
2022-12-22T05:13:50.031Z,1.30
2022-12-22T05:14:50.038Z,1.20
2022-12-22T05:15:50.061Z,1.60
2022-12-22T05:16:49.997Z,1.90
2022-12-22T05:17:49.948Z,2.60
2022-12-22T05:18:50.089Z,2.20
2022-12-22T05:19:49.860Z,2.50
2022-12-22T05:20:49.990Z,2.40
2022-12-22T05:21:49.993Z,2.20
2022-12-22T05:22:49.912Z,3.00
2022-12-22T05:23:49.859Z,3.60
2022-12-22T05:24:49.853Z,3.90
2022-12-22T05:25:49.994Z,2.20
2022-12-22T05:26:49.808Z,3.10
2022-12-22T05:27:49.814Z,2.50
2022-12-22T05:28:49.940Z,1.50
2022-12-22T05:29:49.774Z,2.10
2022-12-22T05:30:49.804Z,1.10
2022-12-22T05:31:49.739Z,1.80
2022-12-22T05:32:49.812Z,1.90
2022-12-22T05:33:49.679Z,2.50
2022-12-22T05:34:49.675Z,3.20
2022-12-22T05:35:49.711Z,2.90
2022-12-22T05:36:49.669Z,3.20
2022-12-22T05:37:49.642Z,2.40
2022-12-22T05:38:49.793Z,2.00
2022-12-22T05:39:49.581Z,1.80
2022-12-22T05:40:49.617Z,2.40
2022-12-22T05:41:49.701Z,2.50
2022-12-22T05:42:49.611Z,1.30
2022-12-22T05:43:49.566Z,3.40
2022-12-22T05:44:49.664Z,2.60
2022-12-22T05:45:49.575Z,2.70
2022-12-22T05:46:49.531Z,2.80
2022-12-22T05:47:49.615Z,2.60
2022-12-22T05:48:49.501Z,2.50
2022-12-22T05:49:49.491Z,2.10
2022-12-22T05:50:49.517Z,2.10
2022-12-22T05:51:49.469Z,3.70
2022-12-22T05:52:49.449Z,2.60
2022-12-22T05:53:49.410Z,4.00
2022-12-22T05:54:49.445Z,3.10
2022-12-22T05:55:49.362Z,1.60
2022-12-22T05:56:49.451Z,2.70
2022-12-22T05:57:49.384Z,2.00
2022-12-22T05:58:49.339Z,2.70
2022-12-22T05:59:49.350Z,1.50
2022-12-22T06:00:49.478Z,1.70
2022-12-22T06:01:49.388Z,3.40
2022-12-22T06:02:49.470Z,1.30
2022-12-22T06:03:53.286Z,3.90
2022-12-22T06:04:50.281Z,2.00
2022-12-22T06:05:49.278Z,2.00
2022-12-22T06:06:49.278Z,2.10
2022-12-22T06:07:49.441Z,3.20
2022-12-22T06:08:49.311Z,3.70
2022-12-22T06:09:49.188Z,2.40
2022-12-22T06:10:49.235Z,1.60
2022-12-22T06:11:49.203Z,2.30
2022-12-22T06:12:49.140Z,3.40
2022-12-22T06:13:49.200Z,2.20
2022-12-22T06:14:49.268Z,1.50
2022-12-22T06:15:49.195Z,2.90
2022-12-22T06:16:49.152Z,2.70
2022-12-22T06:17:49.200Z,3.30
2022-12-22T06:18:49.120Z,2.40
2022-12-22T06:19:49.070Z,2.60
2022-12-22T06:20:49.266Z,2.80
2022-12-22T06:21:49.070Z,2.50
2022-12-22T06:22:49.121Z,2.90
2022-12-22T06:23:49.051Z,2.00
2022-12-22T06:24:48.989Z,3.50
2022-12-22T06:25:49.100Z,1.90
2022-12-22T06:26:49.151Z,2.60
2022-12-22T06:27:48.943Z,1.50
2022-12-22T06:28:48.978Z,2.70
2022-12-22T06:29:48.982Z,2.70
2022-12-22T06:30:48.933Z,2.90
2022-12-22T06:31:48.973Z,1.90
2022-12-22T06:32:48.880Z,3.70
2022-12-22T06:33:48.902Z,1.30
2022-12-22T06:35:59.565Z,2.60
2022-12-22T06:36:58.311Z,2.30
2022-12-22T06:37:58.291Z,2.20
2022-12-22T06:38:58.498Z,2.00
2022-12-22T06:39:58.326Z,3.60
2022-12-22T06:40:58.246Z,2.80
2022-12-22T06:41:58.354Z,2.30
2022-12-22T06:43:03.944Z,2.30
2022-12-22T06:43:59.202Z,1.70
2022-12-22T06:44:58.271Z,2.00
2022-12-22T06:45:58.265Z,1.80
2022-12-22T06:46:58.192Z,1.30
2022-12-22T06:47:58.172Z,1.80
2022-12-22T06:48:58.239Z,2.60
2022-12-22T06:49:58.183Z,1.80
2022-12-22T06:50:58.299Z,1.80
2022-12-22T06:51:58.195Z,2.50
2022-12-22T06:52:58.130Z,3.00
2022-12-22T06:53:58.052Z,1.60
2022-12-22T06:54:58.216Z,1.20
2022-12-22T06:55:58.099Z,1.50
2022-12-22T06:56:58.059Z,1.80
2022-12-22T06:57:58.110Z,2.60
2022-12-22T06:58:58.061Z,1.90
2022-12-22T06:59:58.204Z,2.30
2022-12-22T07:00:58.166Z,1.90
2022-12-22T07:01:58.069Z,2.80
2022-12-22T07:02:58.188Z,2.30
2022-12-22T07:03:58.057Z,2.00
2022-12-22T07:04:58.074Z,1.30
2022-12-22T07:05:57.983Z,3.80
2022-12-22T07:06:57.927Z,2.20
2022-12-22T07:08:02.558Z,3.30
2022-12-22T07:08:58.971Z,2.50
2022-12-22T07:09:57.850Z,1.70
2022-12-22T07:10:57.826Z,2.10
2022-12-22T07:11:57.884Z,1.50
2022-12-22T07:13:04.109Z,2.30
2022-12-22T07:13:57.884Z,1.70
2022-12-22T07:14:57.863Z,2.00
2022-12-22T07:16:01.195Z,2.80
2022-12-22T07:16:57.768Z,2.00
2022-12-22T07:17:57.870Z,1.90
2022-12-22T07:18:57.791Z,2.70
2022-12-22T07:19:57.734Z,3.50
2022-12-22T07:21:01.222Z,3.30
2022-12-22T07:21:57.698Z,1.40
2022-12-22T07:22:57.681Z,2.50
2022-12-22T07:23:57.715Z,2.50
2022-12-22T07:26:08.309Z,2.10
2022-12-22T07:27:08.307Z,2.30
2022-12-22T07:28:08.408Z,3.50
2022-12-22T07:29:08.279Z,2.40
2022-12-22T07:30:08.439Z,3.30
2022-12-22T07:31:08.235Z,3.60
2022-12-22T07:32:08.228Z,2.40
2022-12-22T07:33:08.204Z,2.90
2022-12-22T07:34:08.287Z,4.70
2022-12-22T07:35:08.187Z,3.00
2022-12-22T07:36:08.136Z,4.00
2022-12-22T07:37:08.177Z,3.70
2022-12-22T07:38:08.172Z,2.90
2022-12-22T07:39:08.124Z,4.30
2022-12-22T07:40:08.106Z,2.90
2022-12-22T07:41:08.230Z,4.10
2022-12-22T07:42:08.067Z,3.20
2022-12-22T07:43:08.117Z,3.30
2022-12-22T07:44:08.189Z,3.70
2022-12-22T07:45:08.036Z,3.70
2022-12-22T07:46:08.066Z,4.40
2022-12-22T07:47:08.078Z,2.80
2022-12-22T07:48:08.073Z,4.30
2022-12-22T07:49:08.069Z,4.40
2022-12-22T07:50:08.023Z,2.00
2022-12-22T07:51:07.975Z,4.10
2022-12-22T07:52:07.936Z,4.70
2022-12-22T07:53:08.107Z,3.10
2022-12-22T07:54:07.935Z,5.40
2022-12-22T07:55:07.900Z,3.00
2022-12-22T07:56:07.913Z,7.20
2022-12-22T07:57:09.606Z,5.00
2022-12-22T07:58:07.890Z,4.60
2022-12-22T07:59:07.911Z,4.20
2022-12-22T08:00:08.050Z,4.70
2022-12-22T08:01:07.862Z,2.90
2022-12-22T08:02:08.022Z,4.60
2022-12-22T08:03:07.957Z,4.90
2022-12-22T08:04:07.853Z,4.50
2022-12-22T08:05:07.927Z,3.90
2022-12-22T08:06:07.784Z,6.20
2022-12-22T08:07:07.768Z,3.90
2022-12-22T08:08:07.733Z,5.30
2022-12-22T08:09:07.719Z,4.00
2022-12-22T08:10:07.749Z,5.90
2022-12-22T08:11:07.685Z,4.40
2022-12-22T08:12:07.716Z,4.10
2022-12-22T08:13:07.733Z,5.40
2022-12-22T08:14:07.625Z,7.30
2022-12-22T08:15:07.631Z,5.30
2022-12-22T08:16:07.723Z,3.00
2022-12-22T08:17:07.605Z,5.40
2022-12-22T08:18:07.618Z,7.90
2022-12-22T08:19:07.580Z,6.50
2022-12-22T08:20:07.624Z,5.80
2022-12-22T08:21:07.553Z,8.60
2022-12-22T08:22:07.535Z,6.50
2022-12-22T08:23:07.598Z,7.10
2022-12-22T08:24:07.525Z,6.80
2022-12-22T08:25:07.512Z,7.80
2022-12-22T08:26:07.545Z,5.00
2022-12-22T08:27:07.474Z,6.40
2022-12-22T08:28:07.452Z,8.30
2022-12-22T08:29:07.532Z,5.80
2022-12-22T08:30:07.486Z,9.20
2022-12-22T08:31:07.447Z,8.90
2022-12-22T08:32:07.517Z,6.30
2022-12-22T08:33:07.395Z,5.80
2022-12-22T08:34:07.395Z,5.10
2022-12-22T08:35:07.386Z,6.20
2022-12-22T08:36:08.465Z,5.90
2022-12-22T08:37:07.386Z,7.50
2022-12-22T08:38:07.364Z,5.00
2022-12-22T08:39:07.405Z,8.70
2022-12-22T08:40:07.283Z,4.30
2022-12-22T08:41:07.274Z,9.40
2022-12-22T08:42:07.312Z,7.30
2022-12-22T08:43:07.249Z,7.20
2022-12-22T08:44:07.224Z,7.40
2022-12-22T08:45:07.267Z,6.80
2022-12-22T08:46:07.284Z,7.00
2022-12-22T08:47:13.035Z,6.60
2022-12-22T08:48:08.266Z,7.30
2022-12-22T08:49:07.187Z,7.90
2022-12-22T08:50:07.162Z,4.50
2022-12-22T08:51:07.240Z,10.70
2022-12-22T08:52:08.216Z,7.10
2022-12-22T08:53:14.510Z,8.10
2022-12-22T08:54:08.166Z,6.80
2022-12-22T08:55:07.096Z,6.50
2022-12-22T08:56:07.128Z,7.00
2022-12-22T08:57:07.173Z,9.50
2022-12-22T08:58:07.080Z,6.80
2022-12-22T08:59:07.075Z,6.90
2022-12-22T09:00:07.054Z,7.00
2022-12-22T09:01:07.107Z,5.00
2022-12-22T09:02:07.125Z,6.60
2022-12-22T09:03:07.104Z,3.70
2022-12-22T09:04:07.015Z,5.90
2022-12-22T09:05:06.967Z,6.60
2022-12-22T09:06:07.027Z,4.10
2022-12-22T09:07:06.972Z,5.20
2022-12-22T09:08:07.051Z,8.80
2022-12-22T09:09:06.925Z,3.80
2022-12-22T09:10:07.008Z,6.90
2022-12-22T09:11:07.213Z,6.20
2022-12-22T09:12:06.947Z,7.90
2022-12-22T09:13:06.998Z,8.80
2022-12-22T09:14:06.918Z,7.20
2022-12-22T09:15:06.836Z,6.60
2022-12-22T09:16:06.939Z,8.30
2022-12-22T09:17:06.843Z,7.30
2022-12-22T09:18:06.905Z,8.90
2022-12-22T09:19:06.844Z,8.70
2022-12-22T09:20:06.758Z,7.30
2022-12-22T09:21:06.963Z,4.30
2022-12-22T09:22:06.782Z,6.30
2022-12-22T09:23:06.834Z,6.20
2022-12-22T09:24:06.771Z,7.80
2022-12-22T09:25:06.768Z,9.50
2022-12-22T09:26:06.776Z,4.40
2022-12-22T09:27:06.729Z,4.30
2022-12-22T09:28:06.772Z,9.70
2022-12-22T09:29:06.723Z,5.10
2022-12-22T09:30:06.656Z,3.90
2022-12-22T09:31:06.738Z,1.20
2022-12-22T09:32:06.747Z,5.30
2022-12-22T09:33:06.646Z,5.80
2022-12-22T09:34:18.358Z,6.60
2022-12-22T09:35:07.584Z,7.00
2022-12-22T09:36:06.578Z,4.90
2022-12-22T09:37:06.615Z,3.10
2022-12-22T09:38:06.596Z,1.70
2022-12-22T09:39:06.536Z,6.00
2022-12-22T09:40:06.676Z,5.10
2022-12-22T09:41:06.513Z,4.80
2022-12-22T09:42:06.496Z,3.20
2022-12-22T09:43:06.647Z,3.20
2022-12-22T09:44:06.553Z,2.70
2022-12-22T09:45:06.424Z,7.00
2022-12-22T09:46:06.586Z,4.60
2022-12-22T09:47:06.461Z,3.70
2022-12-22T09:48:06.445Z,4.80
2022-12-22T09:49:06.471Z,2.00
2022-12-22T09:50:06.408Z,5.50
2022-12-22T09:51:06.374Z,3.90
2022-12-22T09:52:06.428Z,6.20
2022-12-22T09:53:06.357Z,3.10
2022-12-22T09:54:06.318Z,1.50
2022-12-22T09:55:08.490Z,3.50
2022-12-22T09:56:06.346Z,3.80
2022-12-22T09:57:06.273Z,4.10
2022-12-22T09:58:06.414Z,2.60
2022-12-22T09:59:06.271Z,2.70
2022-12-22T10:00:06.235Z,3.80
2022-12-22T10:01:06.440Z,4.10
2022-12-22T10:02:06.576Z,4.80
2022-12-22T10:03:06.230Z,3.50
2022-12-22T10:04:06.364Z,4.20
2022-12-22T10:05:06.175Z,5.10
2022-12-22T10:06:06.198Z,2.30
2022-12-22T10:07:06.359Z,3.20
2022-12-22T10:08:06.162Z,4.20
2022-12-22T10:09:21.578Z,4.20
2022-12-22T10:10:31.073Z,5.90
2022-12-22T10:11:06.083Z,1.60
2022-12-22T10:12:06.073Z,5.40
2022-12-22T10:13:06.290Z,4.50
2022-12-22T10:14:06.071Z,4.30
2022-12-22T10:15:06.059Z,2.40
2022-12-22T10:16:06.245Z,6.80
2022-12-22T10:17:06.083Z,2.40
2022-12-22T10:18:06.003Z,2.60
2022-12-22T10:19:06.082Z,4.20
2022-12-22T10:20:06.018Z,4.20
2022-12-22T10:21:05.968Z,3.30
2022-12-22T10:22:06.179Z,2.60
2022-12-22T10:23:05.950Z,2.40
2022-12-22T10:24:05.935Z,4.10
2022-12-22T10:25:06.077Z,3.00
2022-12-22T10:27:06.913Z,3.20
2022-12-22T10:28:06.001Z,6.40
2022-12-22T10:29:08.083Z,2.40
2022-12-22T10:30:05.872Z,1.70
2022-12-22T10:31:05.838Z,2.60
2022-12-22T10:32:05.960Z,2.90
2022-12-22T10:33:05.782Z,3.40
2022-12-22T10:34:05.842Z,4.40
2022-12-22T10:35:05.804Z,1.70
2022-12-22T10:36:05.747Z,1.70
2022-12-22T10:37:05.756Z,3.20
2022-12-22T10:38:05.825Z,2.50
2022-12-22T10:39:06.895Z,4.70
2022-12-22T10:40:05.701Z,3.70
2022-12-22T10:41:05.711Z,6.40
2022-12-22T10:43:15.835Z,3.20
2022-12-22T10:44:15.827Z,3.00
2022-12-22T10:45:15.875Z,2.50
2022-12-22T10:46:15.838Z,4.70
2022-12-22T10:47:31.226Z,1.80
2022-12-22T10:48:15.706Z,2.90
2022-12-22T10:49:15.747Z,2.90
2022-12-22T10:50:15.872Z,5.00
2022-12-22T10:51:15.659Z,2.10
2022-12-22T10:52:15.680Z,3.30
2022-12-22T10:53:15.725Z,2.20
2022-12-22T10:54:15.634Z,3.60
2022-12-22T10:55:15.663Z,2.50
2022-12-22T10:56:15.566Z,2.30
2022-12-22T10:57:15.640Z,4.70
2022-12-22T10:58:15.550Z,3.60
2022-12-22T10:59:15.533Z,2.40
2022-12-22T11:00:15.619Z,4.60
2022-12-22T11:01:15.666Z,3.30
2022-12-22T11:02:15.828Z,2.50
2022-12-22T11:03:20.710Z,3.80
2022-12-22T11:04:16.581Z,2.10
2022-12-22T11:05:15.638Z,2.80
2022-12-22T11:06:15.470Z,4.20
2022-12-22T11:07:15.624Z,1.70
2022-12-22T11:08:15.397Z,4.30
2022-12-22T11:09:33.073Z,3.20
2022-12-22T11:10:16.402Z,1.90
2022-12-22T11:11:15.397Z,3.30
2022-12-22T11:12:15.418Z,2.50
2022-12-22T11:13:15.379Z,3.90
2022-12-22T11:14:15.326Z,1.70
2022-12-22T11:15:22.021Z,3.20
2022-12-22T11:16:16.296Z,4.20
2022-12-22T11:17:15.373Z,4.40
2022-12-22T11:18:15.268Z,3.90
2022-12-22T11:19:15.309Z,5.90
2022-12-22T11:20:24.254Z,5.30
2022-12-22T11:21:22.013Z,5.60
2022-12-22T11:22:16.313Z,1.70
2022-12-22T11:23:15.217Z,4.50
2022-12-22T11:24:15.206Z,6.30
2022-12-22T11:25:15.222Z,4.60
2022-12-22T11:26:15.164Z,2.00
2022-12-22T11:27:15.127Z,3.10
2022-12-22T11:28:15.134Z,3.40
2022-12-22T11:29:15.097Z,2.90
2022-12-22T11:30:15.178Z,4.90
2022-12-22T11:31:15.244Z,4.40
2022-12-22T11:32:15.073Z,2.50
2022-12-22T11:33:15.066Z,3.80
2022-12-22T11:34:20.771Z,3.20
2022-12-22T11:35:16.076Z,2.10
2022-12-22T11:36:15.009Z,4.30
2022-12-22T11:37:15.041Z,3.90
2022-12-22T11:38:14.991Z,3.00
2022-12-22T11:39:14.965Z,6.30
2022-12-22T11:40:14.950Z,6.60
2022-12-22T11:41:14.947Z,4.00
2022-12-22T11:42:14.986Z,4.30
2022-12-22T11:43:14.966Z,4.40
2022-12-22T11:44:15.027Z,4.60
2022-12-22T11:45:14.900Z,3.40
2022-12-22T11:46:14.923Z,2.90
2022-12-22T11:47:14.916Z,2.80
2022-12-22T11:48:14.936Z,1.70
2022-12-22T11:49:14.904Z,4.70
2022-12-22T11:50:59.523Z,4.70
2022-12-22T11:51:15.839Z,2.10
2022-12-22T11:52:14.876Z,6.10
2022-12-22T11:53:14.788Z,2.60
2022-12-22T11:54:14.792Z,4.20
2022-12-22T11:55:14.824Z,3.40
2022-12-22T11:56:14.756Z,4.50
2022-12-22T11:57:14.782Z,3.30
2022-12-22T11:58:14.755Z,4.60
2022-12-22T11:59:14.757Z,3.40
2022-12-22T12:00:14.694Z,2.30
2022-12-22T12:01:20.469Z,2.30
2022-12-22T12:02:15.844Z,3.20
2022-12-22T12:03:14.772Z,5.10
2022-12-22T12:04:14.722Z,6.00
2022-12-22T12:05:14.690Z,2.90
2022-12-22T12:06:14.641Z,5.30
2022-12-22T12:07:14.633Z,2.80
2022-12-22T12:08:14.691Z,2.30
2022-12-22T12:09:14.595Z,3.10
2022-12-22T12:10:14.573Z,3.00
2022-12-22T12:11:14.642Z,2.00
2022-12-22T12:12:14.529Z,3.00
2022-12-22T12:13:18.112Z,1.80
2022-12-22T12:14:15.594Z,2.50
2022-12-22T12:15:14.498Z,3.10
2022-12-22T12:16:14.671Z,3.10
2022-12-22T12:17:14.582Z,2.70
2022-12-22T12:18:14.484Z,0.80
2022-12-22T12:19:14.483Z,3.80
2022-12-22T12:20:14.466Z,2.00
2022-12-22T12:21:14.410Z,1.50
2022-12-22T12:22:14.495Z,2.80
2022-12-22T12:23:14.384Z,0.80
2022-12-22T12:24:14.429Z,1.70
2022-12-22T12:25:14.528Z,1.40
2022-12-22T12:26:14.375Z,2.40
2022-12-22T12:27:14.627Z,2.70
2022-12-22T12:28:14.334Z,1.90
2022-12-22T12:29:14.326Z,0.90
2022-12-22T12:30:37.365Z,2.70
2022-12-22T12:31:15.319Z,1.50
2022-12-22T12:32:14.274Z,1.40
2022-12-22T12:33:14.485Z,3.50
2022-12-22T12:34:14.244Z,4.30
2022-12-22T12:35:14.292Z,2.80
2022-12-22T12:36:14.396Z,2.20
2022-12-22T12:37:14.269Z,2.40
2022-12-22T12:38:39.361Z,3.40
2022-12-22T12:39:15.272Z,1.00
2022-12-22T12:40:14.163Z,1.80
2022-12-22T12:41:14.196Z,2.10
2022-12-22T12:42:14.200Z,2.80
2022-12-22T12:43:16.494Z,1.90
2022-12-22T12:44:14.156Z,2.90
2022-12-22T12:45:14.094Z,2.20
2022-12-22T12:46:14.282Z,3.10
2022-12-22T12:47:14.096Z,1.60
2022-12-22T12:48:14.060Z,1.80
2022-12-22T12:49:14.168Z,2.20
2022-12-22T12:50:14.044Z,1.40
2022-12-22T12:51:14.004Z,2.90
2022-12-22T12:52:14.027Z,2.10
2022-12-22T12:53:13.983Z,1.80
2022-12-22T12:54:13.963Z,2.70
2022-12-22T12:55:20.287Z,1.20
2022-12-22T12:56:14.945Z,2.20
2022-12-22T12:57:13.945Z,2.00
2022-12-22T12:58:13.935Z,1.40
2022-12-22T12:59:13.981Z,1.80
2022-12-22T13:00:13.880Z,1.30
2022-12-22T13:01:13.921Z,2.50
2022-12-22T13:02:14.122Z,2.90
2022-12-22T13:03:30.702Z,2.70
2022-12-22T13:04:15.105Z,1.80
2022-12-22T13:05:14.005Z,2.80
2022-12-22T13:06:13.862Z,2.80
2022-12-22T13:07:13.967Z,2.50
2022-12-22T13:08:13.856Z,3.60
2022-12-22T13:10:14.976Z,1.90
2022-12-22T13:11:13.747Z,2.80
2022-12-22T13:12:17.176Z,1.60
2022-12-22T13:13:14.803Z,2.10
2022-12-22T13:14:13.775Z,3.60
2022-12-22T13:15:13.703Z,2.00
2022-12-22T13:16:13.815Z,2.50
2022-12-22T13:17:21.952Z,1.50
2022-12-22T13:18:13.934Z,1.90
2022-12-22T13:19:13.638Z,3.10
2022-12-22T13:20:13.747Z,2.20
2022-12-22T13:22:14.625Z,2.30
2022-12-22T13:23:13.601Z,2.40
2022-12-22T13:24:29.614Z,3.50
2022-12-22T13:25:14.597Z,2.30
2022-12-22T13:26:13.553Z,2.70
2022-12-22T13:27:13.671Z,3.80